Terminal Aerodrome Forecast
Issued by NWS Wilmington, OH

Current Version | Previous Version | Graphics & Text | Print | Product List | Glossary On
Versions: 1 2 3 4 5 6 7 8 9 10 11 12 13 14 15 16 17 18 19 20 21 22 23 24 25
000
FTUS41 KILN 260541
TAFCMH
TAF
KCMH 260541Z 2606/2706 20009KT P6SM SCT250
     FM260900 22012KT P6SM BKN060
      TEMPO 2610/2612 5SM -SHRA BKN040
     FM261700 27011KT P6SM VCTS BKN040CB
      TEMPO 2620/2622 4SM -TSRA BKN035CB
     FM262200 01008KT P6SM VCSH SCT030 BKN100
     FM270200 02009KT P6SM BKN015=

USA.gov is the U.S. government's official web portal to all federal, state and local government web resources and services.